sensor_id;sensor_type;location;lat;lon;timestamp;P1;durP1;ratioP1;P2;durP2;ratioP2
16969;SDS011;8601;48.718;8.992;2023-03-03T00:00:13;40.47;;;27.83;;
16969;SDS011;8601;48.718;8.992;2023-03-03T00:02:42;39.07;;;27.87;;
16969;SDS011;8601;48.718;8.992;2023-03-03T00:05:09;42.63;;;29.27;;
16969;SDS011;8601;48.718;8.992;2023-03-03T00:07:39;40.33;;;27.47;;
16969;SDS011;8601;48.718;8.992;2023-03-03T00:10:09;38.37;;;27.37;;
16969;SDS011;8601;48.718;8.992;2023-03-03T00:15:14;40.33;;;27.97;;
16969;SDS011;8601;48.718;8.992;2023-03-03T00:17:45;43.27;;;28.10;;
16969;SDS011;8601;48.718;8.992;2023-03-03T00:20:26;41.10;;;28.53;;
16969;SDS011;8601;48.718;8.992;2023-03-03T00:23:11;39.47;;;26.90;;
16969;SDS011;8601;48.718;8.992;2023-03-03T00:25:43;44.30;;;27.33;;
16969;SDS011;8601;48.718;8.992;2023-03-03T00:28:17;42.73;;;28.50;;
16969;SDS011;8601;48.718;8.992;2023-03-03T00:30:49;39.00;;;27.73;;
16969;SDS011;8601;48.718;8.992;2023-03-03T00:33:21;38.80;;;27.90;;
16969;SDS011;8601;48.718;8.992;2023-03-03T00:35:53;38.83;;;26.63;;
16969;SDS011;8601;48.718;8.992;2023-03-03T00:38:20;42.80;;;28.17;;
16969;SDS011;8601;48.718;8.992;2023-03-03T00:40:56;39.80;;;27.70;;
16969;SDS011;8601;48.718;8.992;2023-03-03T00:46:00;38.60;;;26.97;;
16969;SDS011;8601;48.718;8.992;2023-03-03T00:48:30;38.90;;;27.43;;
16969;SDS011;8601;48.718;8.992;2023-03-03T00:57:31;38.07;;;27.60;;
16969;SDS011;8601;48.718;8.992;2023-03-03T00:59:58;40.33;;;27.17;;
16969;SDS011;8601;48.718;8.992;2023-03-03T01:02:26;40.57;;;26.60;;
16969;SDS011;8601;48.718;8.992;2023-03-03T01:04:54;39.97;;;27.60;;
16969;SDS011;8601;48.718;8.992;2023-03-03T01:07:24;40.37;;;27.57;;
16969;SDS011;8601;48.718;8.992;2023-03-03T01:10:01;40.70;;;27.60;;
16969;SDS011;8601;48.718;8.992;2023-03-03T01:12:35;38.60;;;27.83;;
16969;SDS011;8601;48.718;8.992;2023-03-03T01:15:03;40.10;;;26.67;;
16969;SDS011;8601;48.718;8.992;2023-03-03T01:17:30;41.37;;;28.47;;
16969;SDS011;8601;48.718;8.992;2023-03-03T01:19:59;40.93;;;27.43;;
16969;SDS011;8601;48.718;8.992;2023-03-03T01:22:27;43.33;;;28.37;;
16969;SDS011;8601;48.718;8.992;2023-03-03T01:24:54;39.97;;;28.93;;
16969;SDS011;8601;48.718;8.992;2023-03-03T01:27:21;40.30;;;26.67;;
16969;SDS011;8601;48.718;8.992;2023-03-03T01:29:47;43.97;;;29.47;;
16969;SDS011;8601;48.718;8.992;2023-03-03T01:32:16;39.67;;;28.17;;
16969;SDS011;8601;48.718;8.992;2023-03-03T01:34:42;44.10;;;28.97;;
16969;SDS011;8601;48.718;8.992;2023-03-03T01:37:18;44.60;;;29.40;;
16969;SDS011;8601;48.718;8.992;2023-03-03T01:39:47;42.80;;;28.33;;
16969;SDS011;8601;48.718;8.992;2023-03-03T01:42:15;45.83;;;29.03;;
16969;SDS011;8601;48.718;8.992;2023-03-03T01:44:43;44.27;;;29.13;;
16969;SDS011;8601;48.718;8.992;2023-03-03T01:47:11;41.23;;;30.00;;
16969;SDS011;8601;48.718;8.992;2023-03-03T01:49:40;44.60;;;29.43;;
16969;SDS011;8601;48.718;8.992;2023-03-03T01:52:11;45.23;;;30.13;;
16969;SDS011;8601;48.718;8.992;2023-03-03T01:54:46;42.40;;;28.93;;
16969;SDS011;8601;48.718;8.992;2023-03-03T01:57:17;45.70;;;30.73;;
16969;SDS011;8601;48.718;8.992;2023-03-03T01:59:49;45.40;;;30.03;;
16969;SDS011;8601;48.718;8.992;2023-03-03T02:02:18;43.50;;;28.97;;
16969;SDS011;8601;48.718;8.992;2023-03-03T02:04:45;44.67;;;28.33;;
16969;SDS011;8601;48.718;8.992;2023-03-03T02:07:13;42.40;;;30.90;;
16969;SDS011;8601;48.718;8.992;2023-03-03T02:09:54;44.10;;;29.93;;
16969;SDS011;8601;48.718;8.992;2023-03-03T02:15:13;42.93;;;29.20;;
16969;SDS011;8601;48.718;8.992;2023-03-03T02:17:41;45.30;;;29.97;;
16969;SDS011;8601;48.718;8.992;2023-03-03T02:20:10;47.83;;;29.90;;
16969;SDS011;8601;48.718;8.992;2023-03-03T02:22:43;42.57;;;29.80;;
16969;SDS011;8601;48.718;8.992;2023-03-03T02:25:18;47.00;;;29.57;;
16969;SDS011;8601;48.718;8.992;2023-03-03T02:27:54;47.03;;;30.00;;
16969;SDS011;8601;48.718;8.992;2023-03-03T02:30:23;41.53;;;29.57;;
16969;SDS011;8601;48.718;8.992;2023-03-03T02:32:51;44.03;;;28.73;;
16969;SDS011;8601;48.718;8.992;2023-03-03T02:35:28;46.73;;;30.20;;
16969;SDS011;8601;48.718;8.992;2023-03-03T02:38:06;47.97;;;31.97;;
16969;SDS011;8601;48.718;8.992;2023-03-03T02:40:41;43.60;;;29.90;;
16969;SDS011;8601;48.718;8.992;2023-03-03T02:43:14;41.77;;;30.47;;
16969;SDS011;8601;48.718;8.992;2023-03-03T02:45:44;46.03;;;29.83;;
16969;SDS011;8601;48.718;8.992;2023-03-03T02:48:11;43.47;;;30.83;;
16969;SDS011;8601;48.718;8.992;2023-03-03T02:50:46;41.37;;;28.50;;
16969;SDS011;8601;48.718;8.992;2023-03-03T02:53:14;43.60;;;30.17;;
16969;SDS011;8601;48.718;8.992;2023-03-03T02:55:41;45.50;;;31.47;;
16969;SDS011;8601;48.718;8.992;2023-03-03T02:58:08;45.43;;;30.70;;
16969;SDS011;8601;48.718;8.992;2023-03-03T03:00:37;47.30;;;29.93;;
16969;SDS011;8601;48.718;8.992;2023-03-03T03:03:04;45.07;;;30.23;;
16969;SDS011;8601;48.718;8.992;2023-03-03T03:05:31;48.20;;;32.03;;
16969;SDS011;8601;48.718;8.992;2023-03-03T03:07:58;47.17;;;30.77;;
16969;SDS011;8601;48.718;8.992;2023-03-03T03:10:25;46.97;;;30.83;;
16969;SDS011;8601;48.718;8.992;2023-03-03T03:12:52;49.23;;;30.40;;
16969;SDS011;8601;48.718;8.992;2023-03-03T03:15:33;46.73;;;30.07;;
16969;SDS011;8601;48.718;8.992;2023-03-03T03:18:03;50.23;;;31.00;;
16969;SDS011;8601;48.718;8.992;2023-03-03T03:20:30;44.93;;;30.37;;
16969;SDS011;8601;48.718;8.992;2023-03-03T03:22:57;45.77;;;30.50;;
16969;SDS011;8601;48.718;8.992;2023-03-03T03:25:24;45.17;;;29.70;;
16969;SDS011;8601;48.718;8.992;2023-03-03T03:27:51;47.63;;;30.13;;
16969;SDS011;8601;48.718;8.992;2023-03-03T03:30:19;43.70;;;29.20;;
16969;SDS011;8601;48.718;8.992;2023-03-03T03:32:47;46.07;;;29.90;;
16969;SDS011;8601;48.718;8.992;2023-03-03T03:35:15;43.57;;;31.27;;
16969;SDS011;8601;48.718;8.992;2023-03-03T03:37:42;41.87;;;29.57;;
16969;SDS011;8601;48.718;8.992;2023-03-03T03:40:10;48.33;;;30.17;;
16969;SDS011;8601;48.718;8.992;2023-03-03T03:42:47;43.10;;;29.03;;
16969;SDS011;8601;48.718;8.992;2023-03-03T03:45:15;48.53;;;30.23;;
16969;SDS011;8601;48.718;8.992;2023-03-03T03:47:42;46.57;;;30.70;;
16969;SDS011;8601;48.718;8.992;2023-03-03T03:50:11;46.07;;;30.57;;
16969;SDS011;8601;48.718;8.992;2023-03-03T03:55:16;41.17;;;29.13;;
16969;SDS011;8601;48.718;8.992;2023-03-03T04:00:14;42.13;;;28.63;;
16969;SDS011;8601;48.718;8.992;2023-03-03T04:02:41;37.83;;;25.20;;
16969;SDS011;8601;48.718;8.992;2023-03-03T04:05:08;42.10;;;27.57;;
16969;SDS011;8601;48.718;8.992;2023-03-03T04:07:36;46.13;;;29.17;;
16969;SDS011;8601;48.718;8.992;2023-03-03T04:10:04;43.97;;;29.80;;
16969;SDS011;8601;48.718;8.992;2023-03-03T04:12:32;41.33;;;28.07;;
16969;SDS011;8601;48.718;8.992;2023-03-03T04:15:02;41.03;;;28.40;;
16969;SDS011;8601;48.718;8.992;2023-03-03T04:17:38;43.13;;;28.00;;
16969;SDS011;8601;48.718;8.992;2023-03-03T04:20:06;43.10;;;29.43;;
16969;SDS011;8601;48.718;8.992;2023-03-03T04:22:37;46.00;;;29.60;;
16969;SDS011;8601;48.718;8.992;2023-03-03T04:25:04;39.37;;;27.90;;
16969;SDS011;8601;48.718;8.992;2023-03-03T04:27:32;39.70;;;27.57;;
16969;SDS011;8601;48.718;8.992;2023-03-03T04:30:00;42.93;;;28.60;;
16969;SDS011;8601;48.718;8.992;2023-03-03T04:35:15;40.50;;;27.50;;
16969;SDS011;8601;48.718;8.992;2023-03-03T04:37:43;41.30;;;29.07;;
16969;SDS011;8601;48.718;8.992;2023-03-03T04:40:10;41.63;;;27.87;;
16969;SDS011;8601;48.718;8.992;2023-03-03T04:42:37;38.53;;;27.63;;
16969;SDS011;8601;48.718;8.992;2023-03-03T04:45:04;43.60;;;29.40;;
16969;SDS011;8601;48.718;8.992;2023-03-03T04:47:32;41.60;;;28.47;;
16969;SDS011;8601;48.718;8.992;2023-03-03T04:49:59;39.17;;;27.47;;
16969;SDS011;8601;48.718;8.992;2023-03-03T04:52:26;41.93;;;28.03;;
16969;SDS011;8601;48.718;8.992;2023-03-03T04:57:33;38.40;;;27.27;;
16969;SDS011;8601;48.718;8.992;2023-03-03T05:00:01;37.90;;;27.37;;
16969;SDS011;8601;48.718;8.992;2023-03-03T05:02:36;43.27;;;29.07;;
16969;SDS011;8601;48.718;8.992;2023-03-03T05:05:04;40.10;;;28.87;;
16969;SDS011;8601;48.718;8.992;2023-03-03T05:07:33;41.00;;;27.70;;
16969;SDS011;8601;48.718;8.992;2023-03-03T05:10:00;41.93;;;28.80;;
16969;SDS011;8601;48.718;8.992;2023-03-03T05:12:29;37.27;;;26.47;;
16969;SDS011;8601;48.718;8.992;2023-03-03T05:14:55;39.27;;;27.60;;
16969;SDS011;8601;48.718;8.992;2023-03-03T05:17:22;38.03;;;26.80;;
16969;SDS011;8601;48.718;8.992;2023-03-03T05:19:49;39.57;;;27.63;;
16969;SDS011;8601;48.718;8.992;2023-03-03T05:22:16;37.87;;;28.83;;
16969;SDS011;8601;48.718;8.992;2023-03-03T05:24:43;40.57;;;28.20;;
16969;SDS011;8601;48.718;8.992;2023-03-03T05:27:13;38.73;;;26.97;;
16969;SDS011;8601;48.718;8.992;2023-03-03T05:29:41;39.93;;;26.70;;
16969;SDS011;8601;48.718;8.992;2023-03-03T05:32:08;39.17;;;27.00;;
16969;SDS011;8601;48.718;8.992;2023-03-03T05:37:06;41.30;;;29.23;;
16969;SDS011;8601;48.718;8.992;2023-03-03T05:39:33;39.40;;;29.30;;
16969;SDS011;8601;48.718;8.992;2023-03-03T05:44:42;38.83;;;27.80;;
16969;SDS011;8601;48.718;8.992;2023-03-03T05:47:09;41.20;;;28.03;;
16969;SDS011;8601;48.718;8.992;2023-03-03T05:49:36;36.97;;;27.70;;
16969;SDS011;8601;48.718;8.992;2023-03-03T05:52:03;40.60;;;27.63;;
16969;SDS011;8601;48.718;8.992;2023-03-03T05:54:30;39.27;;;28.47;;
16969;SDS011;8601;48.718;8.992;2023-03-03T05:56:57;43.43;;;28.73;;
16969;SDS011;8601;48.718;8.992;2023-03-03T05:59:24;40.17;;;27.83;;
16969;SDS011;8601;48.718;8.992;2023-03-03T06:01:53;36.70;;;25.83;;
16969;SDS011;8601;48.718;8.992;2023-03-03T06:04:20;39.07;;;26.93;;
16969;SDS011;8601;48.718;8.992;2023-03-03T06:06:47;39.67;;;28.20;;
16969;SDS011;8601;48.718;8.992;2023-03-03T06:09:13;39.43;;;27.27;;
16969;SDS011;8601;48.718;8.992;2023-03-03T06:11:43;40.90;;;28.50;;
16969;SDS011;8601;48.718;8.992;2023-03-03T06:14:10;38.37;;;27.60;;
16969;SDS011;8601;48.718;8.992;2023-03-03T06:16:37;44.07;;;28.07;;
16969;SDS011;8601;48.718;8.992;2023-03-03T06:19:06;38.73;;;26.37;;
16969;SDS011;8601;48.718;8.992;2023-03-03T06:24:31;41.03;;;29.13;;
16969;SDS011;8601;48.718;8.992;2023-03-03T06:26:58;40.27;;;30.33;;
16969;SDS011;8601;48.718;8.992;2023-03-03T06:29:26;40.23;;;28.17;;
16969;SDS011;8601;48.718;8.992;2023-03-03T06:31:53;38.43;;;27.90;;
16969;SDS011;8601;48.718;8.992;2023-03-03T06:34:22;38.83;;;27.17;;
16969;SDS011;8601;48.718;8.992;2023-03-03T06:36:51;39.87;;;28.27;;
16969;SDS011;8601;48.718;8.992;2023-03-03T06:39:17;38.43;;;28.10;;
16969;SDS011;8601;48.718;8.992;2023-03-03T06:41:44;42.60;;;29.53;;
16969;SDS011;8601;48.718;8.992;2023-03-03T06:44:20;43.30;;;28.37;;
16969;SDS011;8601;48.718;8.992;2023-03-03T06:46:47;36.60;;;27.97;;
16969;SDS011;8601;48.718;8.992;2023-03-03T06:49:14;39.57;;;27.50;;
16969;SDS011;8601;48.718;8.992;2023-03-03T06:51:43;46.13;;;30.53;;
16969;SDS011;8601;48.718;8.992;2023-03-03T06:54:11;40.93;;;26.93;;
16969;SDS011;8601;48.718;8.992;2023-03-03T06:56:50;47.13;;;32.70;;
16969;SDS011;8601;48.718;8.992;2023-03-03T06:59:25;39.80;;;28.47;;
16969;SDS011;8601;48.718;8.992;2023-03-03T07:01:52;40.27;;;28.37;;
16969;SDS011;8601;48.718;8.992;2023-03-03T07:07:10;41.67;;;27.07;;
16969;SDS011;8601;48.718;8.992;2023-03-03T07:09:42;41.87;;;28.33;;
16969;SDS011;8601;48.718;8.992;2023-03-03T07:17:34;38.20;;;27.60;;
16969;SDS011;8601;48.718;8.992;2023-03-03T07:20:07;41.40;;;28.33;;
16969;SDS011;8601;48.718;8.992;2023-03-03T07:22:43;39.27;;;27.53;;
16969;SDS011;8601;48.718;8.992;2023-03-03T07:25:17;41.07;;;28.57;;
16969;SDS011;8601;48.718;8.992;2023-03-03T07:27:48;42.77;;;29.73;;
16969;SDS011;8601;48.718;8.992;2023-03-03T07:30:16;41.20;;;28.57;;
16969;SDS011;8601;48.718;8.992;2023-03-03T07:35:27;41.07;;;28.80;;
16969;SDS011;8601;48.718;8.992;2023-03-03T07:38:04;42.77;;;28.83;;
16969;SDS011;8601;48.718;8.992;2023-03-03T07:40:51;43.57;;;28.00;;
16969;SDS011;8601;48.718;8.992;2023-03-03T07:43:29;43.60;;;28.63;;
16969;SDS011;8601;48.718;8.992;2023-03-03T07:48:57;43.10;;;29.37;;
16969;SDS011;8601;48.718;8.992;2023-03-03T07:51:25;41.53;;;28.13;;
16969;SDS011;8601;48.718;8.992;2023-03-03T07:53:57;45.23;;;28.83;;
16969;SDS011;8601;48.718;8.992;2023-03-03T07:56:37;43.50;;;28.00;;
16969;SDS011;8601;48.718;8.992;2023-03-03T07:59:08;42.57;;;26.87;;
16969;SDS011;8601;48.718;8.992;2023-03-03T08:01:46;42.57;;;27.27;;
16969;SDS011;8601;48.718;8.992;2023-03-03T08:04:18;41.10;;;28.27;;
16969;SDS011;8601;48.718;8.992;2023-03-03T08:06:49;43.30;;;27.50;;
16969;SDS011;8601;48.718;8.992;2023-03-03T08:15:11;42.97;;;26.53;;
16969;SDS011;8601;48.718;8.992;2023-03-03T08:17:47;42.00;;;27.83;;
16969;SDS011;8601;48.718;8.992;2023-03-03T08:23:23;43.33;;;27.47;;
16969;SDS011;8601;48.718;8.992;2023-03-03T08:25:54;36.90;;;24.67;;
16969;SDS011;8601;48.718;8.992;2023-03-03T08:28:20;41.13;;;27.07;;
16969;SDS011;8601;48.718;8.992;2023-03-03T08:33:34;39.03;;;25.87;;
16969;SDS011;8601;48.718;8.992;2023-03-03T08:36:01;46.50;;;30.30;;
16969;SDS011;8601;48.718;8.992;2023-03-03T08:38:29;44.13;;;29.63;;
16969;SDS011;8601;48.718;8.992;2023-03-03T08:40:57;38.77;;;26.03;;
16969;SDS011;8601;48.718;8.992;2023-03-03T08:43:30;41.53;;;26.20;;
16969;SDS011;8601;48.718;8.992;2023-03-03T08:45:59;39.67;;;24.40;;
16969;SDS011;8601;48.718;8.992;2023-03-03T08:51:31;41.27;;;25.77;;
16969;SDS011;8601;48.718;8.992;2023-03-03T08:56:37;37.07;;;24.50;;
16969;SDS011;8601;48.718;8.992;2023-03-03T08:59:04;37.03;;;23.90;;
16969;SDS011;8601;48.718;8.992;2023-03-03T09:01:31;29.17;;;18.13;;
16969;SDS011;8601;48.718;8.992;2023-03-03T09:04:06;36.77;;;24.00;;
16969;SDS011;8601;48.718;8.992;2023-03-03T09:06:39;39.77;;;23.43;;
16969;SDS011;8601;48.718;8.992;2023-03-03T09:09:14;38.13;;;24.63;;
16969;SDS011;8601;48.718;8.992;2023-03-03T09:11:42;38.63;;;26.50;;
16969;SDS011;8601;48.718;8.992;2023-03-03T09:14:10;38.97;;;25.10;;
16969;SDS011;8601;48.718;8.992;2023-03-03T09:16:50;37.30;;;25.80;;
16969;SDS011;8601;48.718;8.992;2023-03-03T09:19:36;35.57;;;26.00;;
16969;SDS011;8601;48.718;8.992;2023-03-03T09:22:18;41.63;;;28.00;;
16969;SDS011;8601;48.718;8.992;2023-03-03T09:24:48;36.93;;;25.53;;
16969;SDS011;8601;48.718;8.992;2023-03-03T09:27:21;41.70;;;26.87;;
16969;SDS011;8601;48.718;8.992;2023-03-03T09:30:14;38.23;;;26.17;;
16969;SDS011;8601;48.718;8.992;2023-03-03T09:32:55;38.67;;;25.53;;
16969;SDS011;8601;48.718;8.992;2023-03-03T09:35:33;34.60;;;25.77;;
16969;SDS011;8601;48.718;8.992;2023-03-03T09:38:01;36.20;;;26.67;;
16969;SDS011;8601;48.718;8.992;2023-03-03T09:40:50;38.17;;;26.23;;
16969;SDS011;8601;48.718;8.992;2023-03-03T09:43:47;38.33;;;25.43;;
16969;SDS011;8601;48.718;8.992;2023-03-03T09:46:29;34.13;;;24.40;;
16969;SDS011;8601;48.718;8.992;2023-03-03T09:49:02;34.03;;;25.13;;
16969;SDS011;8601;48.718;8.992;2023-03-03T09:51:50;37.03;;;24.77;;
16969;SDS011;8601;48.718;8.992;2023-03-03T09:54:42;36.33;;;25.43;;
16969;SDS011;8601;48.718;8.992;2023-03-03T09:57:24;34.40;;;25.07;;
16969;SDS011;8601;48.718;8.992;2023-03-03T10:00:03;36.70;;;26.00;;
16969;SDS011;8601;48.718;8.992;2023-03-03T10:02:52;38.37;;;26.17;;
16969;SDS011;8601;48.718;8.992;2023-03-03T10:05:33;36.53;;;25.70;;
16969;SDS011;8601;48.718;8.992;2023-03-03T10:08:12;38.13;;;25.07;;
16969;SDS011;8601;48.718;8.992;2023-03-03T10:11:03;38.60;;;25.47;;
16969;SDS011;8601;48.718;8.992;2023-03-03T10:16:52;37.13;;;25.43;;
16969;SDS011;8601;48.718;8.992;2023-03-03T10:19:44;42.27;;;25.53;;
16969;SDS011;8601;48.718;8.992;2023-03-03T10:22:32;29.37;;;21.87;;
16969;SDS011;8601;48.718;8.992;2023-03-03T10:25:09;34.23;;;23.33;;
16969;SDS011;8601;48.718;8.992;2023-03-03T10:27:50;29.43;;;21.80;;
16969;SDS011;8601;48.718;8.992;2023-03-03T10:30:32;25.80;;;20.47;;
16969;SDS011;8601;48.718;8.992;2023-03-03T10:33:18;28.57;;;22.30;;
16969;SDS011;8601;48.718;8.992;2023-03-03T10:39:14;27.80;;;21.00;;
16969;SDS011;8601;48.718;8.992;2023-03-03T10:41:59;25.97;;;20.10;;
16969;SDS011;8601;48.718;8.992;2023-03-03T10:44:39;29.50;;;20.17;;
16969;SDS011;8601;48.718;8.992;2023-03-03T10:47:23;27.43;;;20.83;;
16969;SDS011;8601;48.718;8.992;2023-03-03T10:50:04;26.80;;;20.37;;
16969;SDS011;8601;48.718;8.992;2023-03-03T10:52:51;31.67;;;20.60;;
16969;SDS011;8601;48.718;8.992;2023-03-03T11:01:30;27.57;;;20.87;;
16969;SDS011;8601;48.718;8.992;2023-03-03T11:04:15;27.60;;;21.70;;
16969;SDS011;8601;48.718;8.992;2023-03-03T11:06:53;26.00;;;21.17;;
16969;SDS011;8601;48.718;8.992;2023-03-03T11:09:29;27.83;;;20.47;;
16969;SDS011;8601;48.718;8.992;2023-03-03T11:12:07;30.47;;;23.17;;
16969;SDS011;8601;48.718;8.992;2023-03-03T11:14:38;31.63;;;21.73;;
16969;SDS011;8601;48.718;8.992;2023-03-03T11:17:15;28.83;;;21.50;;
16969;SDS011;8601;48.718;8.992;2023-03-03T11:19:54;26.57;;;21.03;;
16969;SDS011;8601;48.718;8.992;2023-03-03T11:22:32;28.10;;;20.37;;
16969;SDS011;8601;48.718;8.992;2023-03-03T11:27:55;28.57;;;21.00;;
16969;SDS011;8601;48.718;8.992;2023-03-03T11:30:50;26.87;;;21.27;;
16969;SDS011;8601;48.718;8.992;2023-03-03T11:33:29;30.33;;;21.80;;
16969;SDS011;8601;48.718;8.992;2023-03-03T11:36:06;28.60;;;21.03;;
16969;SDS011;8601;48.718;8.992;2023-03-03T11:38:50;27.03;;;20.90;;
16969;SDS011;8601;48.718;8.992;2023-03-03T11:41:28;28.30;;;21.07;;
16969;SDS011;8601;48.718;8.992;2023-03-03T11:49:52;27.90;;;21.43;;
16969;SDS011;8601;48.718;8.992;2023-03-03T11:52:27;28.00;;;20.87;;
16969;SDS011;8601;48.718;8.992;2023-03-03T11:55:20;27.40;;;21.10;;
16969;SDS011;8601;48.718;8.992;2023-03-03T11:57:53;28.37;;;20.37;;
16969;SDS011;8601;48.718;8.992;2023-03-03T12:00:26;26.87;;;21.57;;
16969;SDS011;8601;48.718;8.992;2023-03-03T12:05:54;26.60;;;21.33;;
16969;SDS011;8601;48.718;8.992;2023-03-03T12:11:44;24.23;;;18.43;;
16969;SDS011;8601;48.718;8.992;2023-03-03T12:14:22;26.70;;;19.23;;
16969;SDS011;8601;48.718;8.992;2023-03-03T12:16:59;25.77;;;19.50;;
16969;SDS011;8601;48.718;8.992;2023-03-03T12:19:32;28.03;;;20.17;;
16969;SDS011;8601;48.718;8.992;2023-03-03T12:22:07;26.97;;;19.57;;
16969;SDS011;8601;48.718;8.992;2023-03-03T12:25:09;26.53;;;19.93;;
16969;SDS011;8601;48.718;8.992;2023-03-03T12:27:55;25.33;;;20.00;;
16969;SDS011;8601;48.718;8.992;2023-03-03T12:33:38;25.03;;;19.60;;
16969;SDS011;8601;48.718;8.992;2023-03-03T12:39:29;26.23;;;19.07;;
16969;SDS011;8601;48.718;8.992;2023-03-03T12:42:09;27.60;;;19.63;;
16969;SDS011;8601;48.718;8.992;2023-03-03T12:44:56;26.93;;;18.73;;
16969;SDS011;8601;48.718;8.992;2023-03-03T12:47:34;26.93;;;19.40;;
16969;SDS011;8601;48.718;8.992;2023-03-03T12:55:52;21.23;;;16.93;;
16969;SDS011;8601;48.718;8.992;2023-03-03T12:58:36;24.17;;;19.67;;
16969;SDS011;8601;48.718;8.992;2023-03-03T13:01:17;23.90;;;17.97;;
16969;SDS011;8601;48.718;8.992;2023-03-03T13:03:57;24.43;;;19.40;;
16969;SDS011;8601;48.718;8.992;2023-03-03T13:06:31;24.03;;;18.83;;
16969;SDS011;8601;48.718;8.992;2023-03-03T13:09:11;28.33;;;20.20;;
16969;SDS011;8601;48.718;8.992;2023-03-03T13:11:56;26.20;;;18.53;;
16969;SDS011;8601;48.718;8.992;2023-03-03T13:14:49;22.70;;;17.93;;
16969;SDS011;8601;48.718;8.992;2023-03-03T13:17:25;25.20;;;18.07;;
16969;SDS011;8601;48.718;8.992;2023-03-03T13:20:11;23.83;;;19.30;;
16969;SDS011;8601;48.718;8.992;2023-03-03T13:28:30;24.03;;;18.47;;
16969;SDS011;8601;48.718;8.992;2023-03-03T13:33:43;23.23;;;17.97;;
16969;SDS011;8601;48.718;8.992;2023-03-03T13:36:17;26.43;;;20.63;;
16969;SDS011;8601;48.718;8.992;2023-03-03T13:38:46;24.43;;;18.97;;
16969;SDS011;8601;48.718;8.992;2023-03-03T13:41:17;22.97;;;18.67;;
16969;SDS011;8601;48.718;8.992;2023-03-03T13:43:56;25.00;;;18.23;;
16969;SDS011;8601;48.718;8.992;2023-03-03T13:46:35;25.53;;;18.93;;
16969;SDS011;8601;48.718;8.992;2023-03-03T13:49:13;23.80;;;19.03;;
16969;SDS011;8601;48.718;8.992;2023-03-03T13:51:59;25.13;;;19.50;;
16969;SDS011;8601;48.718;8.992;2023-03-03T13:54:35;26.77;;;18.77;;
16969;SDS011;8601;48.718;8.992;2023-03-03T13:57:34;25.03;;;19.73;;
16969;SDS011;8601;48.718;8.992;2023-03-03T14:00:16;26.27;;;19.10;;
16969;SDS011;8601;48.718;8.992;2023-03-03T14:03:02;27.53;;;18.70;;
16969;SDS011;8601;48.718;8.992;2023-03-03T14:05:48;27.70;;;20.50;;
16969;SDS011;8601;48.718;8.992;2023-03-03T14:08:19;28.03;;;19.47;;
16969;SDS011;8601;48.718;8.992;2023-03-03T14:11:06;26.00;;;19.67;;
16969;SDS011;8601;48.718;8.992;2023-03-03T14:13:50;26.13;;;19.60;;
16969;SDS011;8601;48.718;8.992;2023-03-03T14:16:30;26.83;;;20.53;;
16969;SDS011;8601;48.718;8.992;2023-03-03T14:19:12;24.27;;;18.80;;
16969;SDS011;8601;48.718;8.992;2023-03-03T14:21:44;26.77;;;19.40;;
16969;SDS011;8601;48.718;8.992;2023-03-03T14:24:19;30.07;;;20.20;;
16969;SDS011;8601;48.718;8.992;2023-03-03T14:26:48;27.53;;;18.90;;
16969;SDS011;8601;48.718;8.992;2023-03-03T14:29:21;26.03;;;19.23;;
16969;SDS011;8601;48.718;8.992;2023-03-03T14:31:55;28.90;;;20.73;;
16969;SDS011;8601;48.718;8.992;2023-03-03T14:34:35;27.00;;;21.03;;
16969;SDS011;8601;48.718;8.992;2023-03-03T14:37:24;25.60;;;19.50;;
16969;SDS011;8601;48.718;8.992;2023-03-03T14:45:50;23.60;;;18.73;;
16969;SDS011;8601;48.718;8.992;2023-03-03T14:48:18;25.83;;;20.33;;
16969;SDS011;8601;48.718;8.992;2023-03-03T14:50:49;29.10;;;20.17;;
16969;SDS011;8601;48.718;8.992;2023-03-03T14:53:36;27.97;;;21.17;;
16969;SDS011;8601;48.718;8.992;2023-03-03T14:56:14;27.67;;;19.73;;
16969;SDS011;8601;48.718;8.992;2023-03-03T14:58:53;106.97;;;50.97;;
16969;SDS011;8601;48.718;8.992;2023-03-03T15:01:41;26.93;;;19.80;;
16969;SDS011;8601;48.718;8.992;2023-03-03T15:04:09;29.90;;;20.57;;
16969;SDS011;8601;48.718;8.992;2023-03-03T15:07:14;28.23;;;20.93;;
16969;SDS011;8601;48.718;8.992;2023-03-03T15:09:59;27.03;;;20.30;;
16969;SDS011;8601;48.718;8.992;2023-03-03T15:12:33;28.53;;;20.83;;
16969;SDS011;8601;48.718;8.992;2023-03-03T15:15:05;28.23;;;20.67;;
16969;SDS011;8601;48.718;8.992;2023-03-03T15:17:42;26.50;;;19.83;;
16969;SDS011;8601;48.718;8.992;2023-03-03T15:20:23;27.33;;;20.57;;
16969;SDS011;8601;48.718;8.992;2023-03-03T15:23:02;27.77;;;19.97;;
16969;SDS011;8601;48.718;8.992;2023-03-03T15:25:41;31.27;;;21.37;;
16969;SDS011;8601;48.718;8.992;2023-03-03T15:28:24;26.67;;;20.77;;
16969;SDS011;8601;48.718;8.992;2023-03-03T15:31:00;31.83;;;22.43;;
16969;SDS011;8601;48.718;8.992;2023-03-03T15:33:44;27.43;;;21.10;;
16969;SDS011;8601;48.718;8.992;2023-03-03T15:36:22;31.10;;;21.17;;
16969;SDS011;8601;48.718;8.992;2023-03-03T15:38:59;29.60;;;20.30;;
16969;SDS011;8601;48.718;8.992;2023-03-03T15:41:42;29.43;;;20.43;;
16969;SDS011;8601;48.718;8.992;2023-03-03T15:44:18;27.17;;;20.83;;
16969;SDS011;8601;48.718;8.992;2023-03-03T15:49:52;29.17;;;21.87;;
16969;SDS011;8601;48.718;8.992;2023-03-03T15:52:36;26.73;;;20.63;;
16969;SDS011;8601;48.718;8.992;2023-03-03T15:55:16;28.80;;;21.67;;
16969;SDS011;8601;48.718;8.992;2023-03-03T15:58:07;31.03;;;21.60;;
16969;SDS011;8601;48.718;8.992;2023-03-03T16:00:57;26.30;;;20.97;;
16969;SDS011;8601;48.718;8.992;2023-03-03T16:03:36;31.33;;;22.27;;
16969;SDS011;8601;48.718;8.992;2023-03-03T16:06:31;31.43;;;23.03;;
16969;SDS011;8601;48.718;8.992;2023-03-03T16:09:08;28.60;;;21.50;;
16969;SDS011;8601;48.718;8.992;2023-03-03T16:11:46;30.00;;;20.97;;
16969;SDS011;8601;48.718;8.992;2023-03-03T16:14:57;31.20;;;22.57;;
16969;SDS011;8601;48.718;8.992;2023-03-03T16:17:38;30.47;;;22.43;;
16969;SDS011;8601;48.718;8.992;2023-03-03T16:20:14;29.33;;;22.17;;
16969;SDS011;8601;48.718;8.992;2023-03-03T16:22:53;35.70;;;21.87;;
16969;SDS011;8601;48.718;8.992;2023-03-03T16:25:50;31.17;;;22.30;;
16969;SDS011;8601;48.718;8.992;2023-03-03T16:28:26;30.63;;;22.53;;
16969;SDS011;8601;48.718;8.992;2023-03-03T16:31:04;30.27;;;22.20;;
16969;SDS011;8601;48.718;8.992;2023-03-03T16:33:35;32.30;;;22.50;;
16969;SDS011;8601;48.718;8.992;2023-03-03T16:36:09;27.30;;;21.67;;
16969;SDS011;8601;48.718;8.992;2023-03-03T16:38:40;30.13;;;22.83;;
16969;SDS011;8601;48.718;8.992;2023-03-03T16:41:12;34.87;;;23.27;;
16969;SDS011;8601;48.718;8.992;2023-03-03T16:43:57;31.07;;;22.97;;
16969;SDS011;8601;48.718;8.992;2023-03-03T16:46:33;33.30;;;21.80;;
16969;SDS011;8601;48.718;8.992;2023-03-03T16:49:13;28.80;;;21.33;;
16969;SDS011;8601;48.718;8.992;2023-03-03T16:51:47;32.27;;;21.93;;
16969;SDS011;8601;48.718;8.992;2023-03-03T16:54:19;33.70;;;22.57;;
16969;SDS011;8601;48.718;8.992;2023-03-03T16:56:59;30.00;;;22.33;;
16969;SDS011;8601;48.718;8.992;2023-03-03T17:05:28;31.70;;;21.80;;
16969;SDS011;8601;48.718;8.992;2023-03-03T17:08:10;29.93;;;21.13;;
16969;SDS011;8601;48.718;8.992;2023-03-03T17:10:49;32.80;;;21.73;;
16969;SDS011;8601;48.718;8.992;2023-03-03T17:13:32;32.50;;;21.97;;
16969;SDS011;8601;48.718;8.992;2023-03-03T17:16:13;32.97;;;23.17;;
16969;SDS011;8601;48.718;8.992;2023-03-03T17:21:46;31.20;;;21.83;;
16969;SDS011;8601;48.718;8.992;2023-03-03T17:24:27;34.70;;;23.00;;